sensor_id;sensor_type;location;lat;lon;timestamp;temperature;humidity
53310;DHT22;39197;53.200;5.792;2023-04-12T00:02:23;7.90;99.90
53310;DHT22;39197;53.200;5.792;2023-04-12T00:04:48;7.90;99.90
53310;DHT22;39197;53.200;5.792;2023-04-12T00:07:20;7.90;99.90
53310;DHT22;39197;53.200;5.792;2023-04-12T00:09:47;8.00;99.90
53310;DHT22;39197;53.200;5.792;2023-04-12T00:12:12;8.00;99.90
53310;DHT22;39197;53.200;5.792;2023-04-12T00:14:38;8.10;99.90
53310;DHT22;39197;53.200;5.792;2023-04-12T00:17:03;8.10;99.90
53310;DHT22;39197;53.200;5.792;2023-04-12T00:19:29;8.20;99.90
53310;DHT22;39197;53.200;5.792;2023-04-12T00:21:55;8.30;99.90
53310;DHT22;39197;53.200;5.792;2023-04-12T00:24:21;8.30;99.90
53310;DHT22;39197;53.200;5.792;2023-04-12T00:26:47;8.40;99.90
53310;DHT22;39197;53.200;5.792;2023-04-12T00:29:12;8.50;99.90
53310;DHT22;39197;53.200;5.792;2023-04-12T00:31:38;8.50;99.90
53310;DHT22;39197;53.200;5.792;2023-04-12T00:34:03;8.50;99.90
53310;DHT22;39197;53.200;5.792;2023-04-12T00:36:29;8.50;99.90
53310;DHT22;39197;53.200;5.792;2023-04-12T00:38:55;8.40;99.90
53310;DHT22;39197;53.200;5.792;2023-04-12T00:41:20;8.40;99.90
53310;DHT22;39197;53.200;5.792;2023-04-12T00:43:48;8.30;99.90
53310;DHT22;39197;53.200;5.792;2023-04-12T00:46:14;8.30;99.90
53310;DHT22;39197;53.200;5.792;2023-04-12T00:48:43;8.30;99.90
53310;DHT22;39197;53.200;5.792;2023-04-12T00:51:12;8.20;99.90
53310;DHT22;39197;53.200;5.792;2023-04-12T00:53:39;8.30;99.90
53310;DHT22;39197;53.200;5.792;2023-04-12T00:56:05;8.30;99.90
53310;DHT22;39197;53.200;5.792;2023-04-12T00:58:32;8.30;99.90
53310;DHT22;39197;53.200;5.792;2023-04-12T01:00:57;8.30;99.90
53310;DHT22;39197;53.200;5.792;2023-04-12T01:03:23;8.30;99.90
53310;DHT22;39197;53.200;5.792;2023-04-12T01:08:57;8.30;99.90
53310;DHT22;39197;53.200;5.792;2023-04-12T01:11:43;8.30;99.90
53310;DHT22;39197;53.200;5.792;2023-04-12T01:14:30;8.20;99.90
53310;DHT22;39197;53.200;5.792;2023-04-12T01:17:04;8.20;99.90
53310;DHT22;39197;53.200;5.792;2023-04-12T01:27:41;8.10;99.90
53310;DHT22;39197;53.200;5.792;2023-04-12T01:30:12;8.10;99.90
53310;DHT22;39197;53.200;5.792;2023-04-12T01:32:39;8.10;99.90
53310;DHT22;39197;53.200;5.792;2023-04-12T01:35:07;8.10;99.90
53310;DHT22;39197;53.200;5.792;2023-04-12T01:37:35;8.10;99.90
53310;DHT22;39197;53.200;5.792;2023-04-12T01:40:02;8.00;99.90
53310;DHT22;39197;53.200;5.792;2023-04-12T01:42:31;8.00;99.90
53310;DHT22;39197;53.200;5.792;2023-04-12T01:44:57;8.00;99.90
53310;DHT22;39197;53.200;5.792;2023-04-12T01:47:23;7.90;99.90
53310;DHT22;39197;53.200;5.792;2023-04-12T01:49:58;7.90;99.90
53310;DHT22;39197;53.200;5.792;2023-04-12T01:52:30;8.00;99.90
53310;DHT22;39197;53.200;5.792;2023-04-12T01:54:57;8.00;99.90
53310;DHT22;39197;53.200;5.792;2023-04-12T01:57:26;8.00;99.90
53310;DHT22;39197;53.200;5.792;2023-04-12T01:59:52;8.00;99.90
53310;DHT22;39197;53.200;5.792;2023-04-12T02:02:19;8.00;99.90
53310;DHT22;39197;53.200;5.792;2023-04-12T02:04:46;8.00;99.90
53310;DHT22;39197;53.200;5.792;2023-04-12T02:07:12;8.00;99.90
53310;DHT22;39197;53.200;5.792;2023-04-12T02:09:39;8.00;99.90
53310;DHT22;39197;53.200;5.792;2023-04-12T02:12:06;8.10;99.90
53310;DHT22;39197;53.200;5.792;2023-04-12T02:14:32;8.10;99.90
53310;DHT22;39197;53.200;5.792;2023-04-12T02:16:57;8.10;99.90
53310;DHT22;39197;53.200;5.792;2023-04-12T02:19:24;8.10;99.90
53310;DHT22;39197;53.200;5.792;2023-04-12T02:21:49;8.10;99.90
53310;DHT22;39197;53.200;5.792;2023-04-12T02:24:15;8.10;99.90
53310;DHT22;39197;53.200;5.792;2023-04-12T02:26:41;8.10;99.90
53310;DHT22;39197;53.200;5.792;2023-04-12T02:29:08;8.10;99.90
53310;DHT22;39197;53.200;5.792;2023-04-12T02:31:37;8.10;99.90
53310;DHT22;39197;53.200;5.792;2023-04-12T02:34:03;8.10;99.90
53310;DHT22;39197;53.200;5.792;2023-04-12T02:36:29;8.10;99.90
53310;DHT22;39197;53.200;5.792;2023-04-12T02:38:55;8.10;99.90
53310;DHT22;39197;53.200;5.792;2023-04-12T02:41:21;8.10;99.90
53310;DHT22;39197;53.200;5.792;2023-04-12T02:43:47;8.00;99.90
53310;DHT22;39197;53.200;5.792;2023-04-12T02:46:20;8.00;99.90
53310;DHT22;39197;53.200;5.792;2023-04-12T02:48:47;8.00;99.90
53310;DHT22;39197;53.200;5.792;2023-04-12T02:51:13;8.10;99.90
53310;DHT22;39197;53.200;5.792;2023-04-12T02:53:38;8.10;99.90
53310;DHT22;39197;53.200;5.792;2023-04-12T02:56:04;8.10;99.90
53310;DHT22;39197;53.200;5.792;2023-04-12T02:58:31;8.10;99.90
53310;DHT22;39197;53.200;5.792;2023-04-12T03:00:58;8.10;99.90
53310;DHT22;39197;53.200;5.792;2023-04-12T03:03:26;8.10;99.90
53310;DHT22;39197;53.200;5.792;2023-04-12T03:05:53;8.00;99.90
53310;DHT22;39197;53.200;5.792;2023-04-12T03:08:20;8.00;99.90
53310;DHT22;39197;53.200;5.792;2023-04-12T03:10:46;8.00;99.90
53310;DHT22;39197;53.200;5.792;2023-04-12T03:13:12;8.00;99.90
53310;DHT22;39197;53.200;5.792;2023-04-12T03:15:38;8.00;99.90
53310;DHT22;39197;53.200;5.792;2023-04-12T03:18:04;8.00;99.90
53310;DHT22;39197;53.200;5.792;2023-04-12T03:20:29;8.00;99.90
53310;DHT22;39197;53.200;5.792;2023-04-12T03:22:55;8.00;99.90
53310;DHT22;39197;53.200;5.792;2023-04-12T03:25:20;7.90;99.90
53310;DHT22;39197;53.200;5.792;2023-04-12T03:27:46;7.90;99.90
53310;DHT22;39197;53.200;5.792;2023-04-12T03:30:12;7.90;99.90
53310;DHT22;39197;53.200;5.792;2023-04-12T03:32:38;7.90;99.90
53310;DHT22;39197;53.200;5.792;2023-04-12T03:35:05;7.90;99.90
53310;DHT22;39197;53.200;5.792;2023-04-12T03:37:32;7.80;99.90
53310;DHT22;39197;53.200;5.792;2023-04-12T03:39:58;7.80;99.90
53310;DHT22;39197;53.200;5.792;2023-04-12T03:42:24;7.80;99.90
53310;DHT22;39197;53.200;5.792;2023-04-12T03:44:50;7.80;99.90
53310;DHT22;39197;53.200;5.792;2023-04-12T03:47:17;7.80;99.90
53310;DHT22;39197;53.200;5.792;2023-04-12T03:49:42;7.80;99.90
53310;DHT22;39197;53.200;5.792;2023-04-12T03:52:08;7.80;99.90
53310;DHT22;39197;53.200;5.792;2023-04-12T03:54:34;7.80;99.90
53310;DHT22;39197;53.200;5.792;2023-04-12T03:56:59;7.70;99.90
53310;DHT22;39197;53.200;5.792;2023-04-12T03:59:27;7.70;99.90
53310;DHT22;39197;53.200;5.792;2023-04-12T04:01:53;7.60;99.90
53310;DHT22;39197;53.200;5.792;2023-04-12T04:04:19;7.70;99.90
53310;DHT22;39197;53.200;5.792;2023-04-12T04:06:45;7.60;99.90
53310;DHT22;39197;53.200;5.792;2023-04-12T04:09:11;7.60;99.90
53310;DHT22;39197;53.200;5.792;2023-04-12T04:11:37;7.70;99.90
53310;DHT22;39197;53.200;5.792;2023-04-12T04:14:02;7.60;99.90
53310;DHT22;39197;53.200;5.792;2023-04-12T04:16:28;7.60;99.90
53310;DHT22;39197;53.200;5.792;2023-04-12T04:18:55;7.60;99.90
53310;DHT22;39197;53.200;5.792;2023-04-12T04:21:21;7.60;99.90
53310;DHT22;39197;53.200;5.792;2023-04-12T04:23:47;7.60;99.90
53310;DHT22;39197;53.200;5.792;2023-04-12T04:26:13;7.50;99.90
53310;DHT22;39197;53.200;5.792;2023-04-12T04:28:41;7.50;99.90
53310;DHT22;39197;53.200;5.792;2023-04-12T04:31:10;7.50;99.90
53310;DHT22;39197;53.200;5.792;2023-04-12T04:33:36;7.60;99.90
53310;DHT22;39197;53.200;5.792;2023-04-12T04:36:04;7.50;99.90
53310;DHT22;39197;53.200;5.792;2023-04-12T04:38:30;7.40;99.90
53310;DHT22;39197;53.200;5.792;2023-04-12T04:41:00;7.40;99.90
53310;DHT22;39197;53.200;5.792;2023-04-12T04:43:27;7.50;99.90
53310;DHT22;39197;53.200;5.792;2023-04-12T04:45:56;7.40;99.90
53310;DHT22;39197;53.200;5.792;2023-04-12T04:48:25;7.40;99.90
53310;DHT22;39197;53.200;5.792;2023-04-12T04:50:51;7.40;99.90
53310;DHT22;39197;53.200;5.792;2023-04-12T04:53:18;7.40;99.90
53310;DHT22;39197;53.200;5.792;2023-04-12T04:55:45;7.40;99.90
53310;DHT22;39197;53.200;5.792;2023-04-12T04:58:12;7.40;99.90
53310;DHT22;39197;53.200;5.792;2023-04-12T05:00:37;7.40;99.90
53310;DHT22;39197;53.200;5.792;2023-04-12T05:03:03;7.40;99.90
53310;DHT22;39197;53.200;5.792;2023-04-12T05:05:29;7.40;99.90
53310;DHT22;39197;53.200;5.792;2023-04-12T05:07:55;7.40;99.90
53310;DHT22;39197;53.200;5.792;2023-04-12T05:10:21;7.30;99.90
53310;DHT22;39197;53.200;5.792;2023-04-12T05:12:47;7.40;99.90
53310;DHT22;39197;53.200;5.792;2023-04-12T05:15:13;7.40;99.90
53310;DHT22;39197;53.200;5.792;2023-04-12T05:17:38;7.40;99.90
53310;DHT22;39197;53.200;5.792;2023-04-12T05:20:05;7.40;99.90
53310;DHT22;39197;53.200;5.792;2023-04-12T05:22:32;7.40;99.90
53310;DHT22;39197;53.200;5.792;2023-04-12T05:24:57;7.40;99.90
53310;DHT22;39197;53.200;5.792;2023-04-12T05:27:23;7.40;99.90
53310;DHT22;39197;53.200;5.792;2023-04-12T05:29:49;7.40;99.90
53310;DHT22;39197;53.200;5.792;2023-04-12T05:32:14;7.40;99.90
53310;DHT22;39197;53.200;5.792;2023-04-12T05:34:40;7.40;99.90
53310;DHT22;39197;53.200;5.792;2023-04-12T05:37:06;7.40;99.90
53310;DHT22;39197;53.200;5.792;2023-04-12T05:39:32;7.40;99.90
53310;DHT22;39197;53.200;5.792;2023-04-12T05:41:58;7.40;99.90
53310;DHT22;39197;53.200;5.792;2023-04-12T05:44:23;7.40;99.90
53310;DHT22;39197;53.200;5.792;2023-04-12T05:46:49;7.40;99.90
53310;DHT22;39197;53.200;5.792;2023-04-12T05:49:15;7.40;99.90
53310;DHT22;39197;53.200;5.792;2023-04-12T05:51:40;7.40;99.90
53310;DHT22;39197;53.200;5.792;2023-04-12T05:54:06;7.40;99.90
53310;DHT22;39197;53.200;5.792;2023-04-12T05:56:32;7.40;99.90
53310;DHT22;39197;53.200;5.792;2023-04-12T05:58:58;7.40;99.90
53310;DHT22;39197;53.200;5.792;2023-04-12T06:01:26;7.30;99.90
53310;DHT22;39197;53.200;5.792;2023-04-12T06:03:58;7.40;99.90
53310;DHT22;39197;53.200;5.792;2023-04-12T06:06:24;7.40;99.90
53310;DHT22;39197;53.200;5.792;2023-04-12T06:08:57;7.40;99.90
53310;DHT22;39197;53.200;5.792;2023-04-12T06:11:25;7.40;99.90
53310;DHT22;39197;53.200;5.792;2023-04-12T06:13:51;7.40;99.90
53310;DHT22;39197;53.200;5.792;2023-04-12T06:16:16;7.40;99.90
53310;DHT22;39197;53.200;5.792;2023-04-12T06:18:42;7.40;99.90
53310;DHT22;39197;53.200;5.792;2023-04-12T06:21:08;7.40;99.90
53310;DHT22;39197;53.200;5.792;2023-04-12T06:23:33;7.40;99.90
53310;DHT22;39197;53.200;5.792;2023-04-12T06:25:59;7.40;99.90
53310;DHT22;39197;53.200;5.792;2023-04-12T06:28:24;7.40;99.90
53310;DHT22;39197;53.200;5.792;2023-04-12T06:30:50;7.40;99.90
53310;DHT22;39197;53.200;5.792;2023-04-12T06:33:15;7.40;99.90
53310;DHT22;39197;53.200;5.792;2023-04-12T06:35:41;7.40;99.90
53310;DHT22;39197;53.200;5.792;2023-04-12T06:38:07;7.40;99.90
53310;DHT22;39197;53.200;5.792;2023-04-12T06:40:32;7.40;99.90
53310;DHT22;39197;53.200;5.792;2023-04-12T06:42:58;7.40;99.90
53310;DHT22;39197;53.200;5.792;2023-04-12T06:45:23;7.40;99.90
53310;DHT22;39197;53.200;5.792;2023-04-12T06:47:49;7.40;99.90
53310;DHT22;39197;53.200;5.792;2023-04-12T06:50:15;7.40;99.90
53310;DHT22;39197;53.200;5.792;2023-04-12T06:52:40;7.40;99.90
53310;DHT22;39197;53.200;5.792;2023-04-12T06:55:06;7.40;99.90
53310;DHT22;39197;53.200;5.792;2023-04-12T06:57:32;7.50;99.90
53310;DHT22;39197;53.200;5.792;2023-04-12T06:59:58;7.40;99.90
53310;DHT22;39197;53.200;5.792;2023-04-12T07:02:23;7.50;99.90
53310;DHT22;39197;53.200;5.792;2023-04-12T07:04:52;7.50;99.90
53310;DHT22;39197;53.200;5.792;2023-04-12T07:07:18;7.50;99.90
53310;DHT22;39197;53.200;5.792;2023-04-12T07:09:47;7.50;99.90
53310;DHT22;39197;53.200;5.792;2023-04-12T07:12:13;7.50;99.90
53310;DHT22;39197;53.200;5.792;2023-04-12T07:14:39;7.40;99.90
53310;DHT22;39197;53.200;5.792;2023-04-12T07:17:05;7.50;99.90
53310;DHT22;39197;53.200;5.792;2023-04-12T07:19:31;7.40;99.90
53310;DHT22;39197;53.200;5.792;2023-04-12T07:21:56;7.50;99.90
53310;DHT22;39197;53.200;5.792;2023-04-12T07:24:22;7.50;99.90
53310;DHT22;39197;53.200;5.792;2023-04-12T07:26:48;7.50;99.90
53310;DHT22;39197;53.200;5.792;2023-04-12T07:29:14;7.60;99.90
53310;DHT22;39197;53.200;5.792;2023-04-12T07:31:40;7.40;99.90
53310;DHT22;39197;53.200;5.792;2023-04-12T07:34:05;7.60;99.90
53310;DHT22;39197;53.200;5.792;2023-04-12T07:36:31;7.60;99.90
53310;DHT22;39197;53.200;5.792;2023-04-12T07:38:56;7.60;99.90
53310;DHT22;39197;53.200;5.792;2023-04-12T07:41:22;7.50;99.90
53310;DHT22;39197;53.200;5.792;2023-04-12T07:43:48;7.60;99.90
53310;DHT22;39197;53.200;5.792;2023-04-12T07:46:13;7.60;99.90
53310;DHT22;39197;53.200;5.792;2023-04-12T07:48:39;7.60;99.90
53310;DHT22;39197;53.200;5.792;2023-04-12T07:53:31;7.70;99.90
53310;DHT22;39197;53.200;5.792;2023-04-12T07:55:57;7.70;99.90
53310;DHT22;39197;53.200;5.792;2023-04-12T07:58:23;7.70;99.90
53310;DHT22;39197;53.200;5.792;2023-04-12T08:00:50;7.80;99.90
53310;DHT22;39197;53.200;5.792;2023-04-12T08:03:16;7.80;99.90
53310;DHT22;39197;53.200;5.792;2023-04-12T08:05:43;7.80;99.90
53310;DHT22;39197;53.200;5.792;2023-04-12T08:08:09;7.80;99.90
53310;DHT22;39197;53.200;5.792;2023-04-12T08:10:38;7.80;99.90
53310;DHT22;39197;53.200;5.792;2023-04-12T08:13:05;7.80;99.90
53310;DHT22;39197;53.200;5.792;2023-04-12T08:15:31;7.80;99.90
53310;DHT22;39197;53.200;5.792;2023-04-12T08:17:57;7.80;99.90
53310;DHT22;39197;53.200;5.792;2023-04-12T08:20:22;7.80;99.90
53310;DHT22;39197;53.200;5.792;2023-04-12T08:22:48;7.80;99.90
53310;DHT22;39197;53.200;5.792;2023-04-12T08:25:14;7.90;99.90
53310;DHT22;39197;53.200;5.792;2023-04-12T08:27:43;8.00;99.90
53310;DHT22;39197;53.200;5.792;2023-04-12T08:30:10;8.10;99.90
53310;DHT22;39197;53.200;5.792;2023-04-12T08:32:36;8.20;99.90
53310;DHT22;39197;53.200;5.792;2023-04-12T08:35:05;8.40;99.90
53310;DHT22;39197;53.200;5.792;2023-04-12T08:37:32;8.70;99.90
53310;DHT22;39197;53.200;5.792;2023-04-12T08:40:01;8.90;99.90
53310;DHT22;39197;53.200;5.792;2023-04-12T08:42:26;9.00;99.90
53310;DHT22;39197;53.200;5.792;2023-04-12T08:44:52;9.00;99.90
53310;DHT22;39197;53.200;5.792;2023-04-12T08:47:18;9.10;99.90
53310;DHT22;39197;53.200;5.792;2023-04-12T08:49:45;9.10;99.90
53310;DHT22;39197;53.200;5.792;2023-04-12T08:52:12;9.30;99.90
53310;DHT22;39197;53.200;5.792;2023-04-12T08:54:38;9.50;99.90
53310;DHT22;39197;53.200;5.792;2023-04-12T08:57:07;9.50;99.90
53310;DHT22;39197;53.200;5.792;2023-04-12T08:59:37;9.70;99.90
53310;DHT22;39197;53.200;5.792;2023-04-12T09:02:03;9.70;99.90
53310;DHT22;39197;53.200;5.792;2023-04-12T09:04:29;9.90;99.90
53310;DHT22;39197;53.200;5.792;2023-04-12T09:06:55;10.20;99.90
53310;DHT22;39197;53.200;5.792;2023-04-12T09:09:53;10.40;99.90
53310;DHT22;39197;53.200;5.792;2023-04-12T09:12:19;11.10;99.90
53310;DHT22;39197;53.200;5.792;2023-04-12T09:15:10;11.60;99.90
53310;DHT22;39197;53.200;5.792;2023-04-12T09:17:35;12.20;99.90
53310;DHT22;39197;53.200;5.792;2023-04-12T09:22:42;13.60;99.90
53310;DHT22;39197;53.200;5.792;2023-04-12T09:25:10;13.60;99.90
53310;DHT22;39197;53.200;5.792;2023-04-12T09:27:46;13.90;99.90
53310;DHT22;39197;53.200;5.792;2023-04-12T09:30:13;13.50;99.90
53310;DHT22;39197;53.200;5.792;2023-04-12T09:32:38;13.50;99.90
53310;DHT22;39197;53.200;5.792;2023-04-12T09:35:04;13.50;99.90
53310;DHT22;39197;53.200;5.792;2023-04-12T09:37:30;13.30;99.90
53310;DHT22;39197;53.200;5.792;2023-04-12T09:40:01;13.50;99.90
53310;DHT22;39197;53.200;5.792;2023-04-12T09:42:27;14.00;99.90
53310;DHT22;39197;53.200;5.792;2023-04-12T09:44:53;14.00;99.90
53310;DHT22;39197;53.200;5.792;2023-04-12T09:47:20;14.30;99.90
53310;DHT22;39197;53.200;5.792;2023-04-12T09:49:46;14.10;99.90
53310;DHT22;39197;53.200;5.792;2023-04-12T09:52:13;13.90;99.90
53310;DHT22;39197;53.200;5.792;2023-04-12T09:54:47;13.60;99.90
53310;DHT22;39197;53.200;5.792;2023-04-12T09:57:17;13.30;99.90
53310;DHT22;39197;53.200;5.792;2023-04-12T09:59:46;13.20;99.90
53310;DHT22;39197;53.200;5.792;2023-04-12T10:02:17;13.40;99.90
53310;DHT22;39197;53.200;5.792;2023-04-12T10:04:44;13.60;99.90
53310;DHT22;39197;53.200;5.792;2023-04-12T10:07:10;14.30;99.90
53310;DHT22;39197;53.200;5.792;2023-04-12T10:09:37;13.80;99.90
53310;DHT22;39197;53.200;5.792;2023-04-12T10:12:03;14.20;99.90
53310;DHT22;39197;53.200;5.792;2023-04-12T10:14:30;14.30;99.90
53310;DHT22;39197;53.200;5.792;2023-04-12T10:16:57;14.40;99.90
53310;DHT22;39197;53.200;5.792;2023-04-12T10:19:25;14.00;99.90
53310;DHT22;39197;53.200;5.792;2023-04-12T10:21:51;14.50;99.90
53310;DHT22;39197;53.200;5.792;2023-04-12T10:24:17;14.90;99.90
53310;DHT22;39197;53.200;5.792;2023-04-12T10:26:46;15.50;99.90
53310;DHT22;39197;53.200;5.792;2023-04-12T10:29:30;15.10;99.90
53310;DHT22;39197;53.200;5.792;2023-04-12T10:32:20;14.90;99.90
53310;DHT22;39197;53.200;5.792;2023-04-12T10:34:57;15.10;99.90
53310;DHT22;39197;53.200;5.792;2023-04-12T10:38:01;14.40;99.90
53310;DHT22;39197;53.200;5.792;2023-04-12T10:40:28;14.30;99.90
53310;DHT22;39197;53.200;5.792;2023-04-12T10:45:43;13.70;99.90
53310;DHT22;39197;53.200;5.792;2023-04-12T10:51:15;13.10;99.90
53310;DHT22;39197;53.200;5.792;2023-04-12T10:53:52;12.70;99.90
53310;DHT22;39197;53.200;5.792;2023-04-12T10:58:58;13.70;99.90
53310;DHT22;39197;53.200;5.792;2023-04-12T11:01:25;14.00;99.90
53310;DHT22;39197;53.200;5.792;2023-04-12T11:04:10;14.20;99.90
53310;DHT22;39197;53.200;5.792;2023-04-12T11:11:43;14.50;99.90
53310;DHT22;39197;53.200;5.792;2023-04-12T11:14:09;14.60;99.90
53310;DHT22;39197;53.200;5.792;2023-04-12T11:19:36;15.00;99.90
53310;DHT22;39197;53.200;5.792;2023-04-12T11:22:07;14.60;99.90
53310;DHT22;39197;53.200;5.792;2023-04-12T11:24:36;14.20;99.90
53310;DHT22;39197;53.200;5.792;2023-04-12T11:27:02;13.60;99.90
53310;DHT22;39197;53.200;5.792;2023-04-12T11:29:28;13.50;99.90
53310;DHT22;39197;53.200;5.792;2023-04-12T11:31:57;13.50;99.90
53310;DHT22;39197;53.200;5.792;2023-04-12T11:34:24;14.00;99.90
53310;DHT22;39197;53.200;5.792;2023-04-12T11:36:53;14.50;99.90
53310;DHT22;39197;53.200;5.792;2023-04-12T11:39:20;15.10;99.90
53310;DHT22;39197;53.200;5.792;2023-04-12T11:41:47;15.10;99.90
53310;DHT22;39197;53.200;5.792;2023-04-12T11:44:14;15.00;99.90
53310;DHT22;39197;53.200;5.792;2023-04-12T11:46:44;15.10;99.90
53310;DHT22;39197;53.200;5.792;2023-04-12T11:49:17;14.90;99.90
53310;DHT22;39197;53.200;5.792;2023-04-12T11:51:44;14.90;99.90
53310;DHT22;39197;53.200;5.792;2023-04-12T11:54:10;15.20;99.90
53310;DHT22;39197;53.200;5.792;2023-04-12T11:56:37;15.10;99.90
53310;DHT22;39197;53.200;5.792;2023-04-12T11:59:03;15.40;99.90
53310;DHT22;39197;53.200;5.792;2023-04-12T12:01:29;14.70;99.90
53310;DHT22;39197;53.200;5.792;2023-04-12T12:03:57;14.20;99.90
53310;DHT22;39197;53.200;5.792;2023-04-12T12:06:23;14.50;99.90
53310;DHT22;39197;53.200;5.792;2023-04-12T12:08:51;14.30;99.90
53310;DHT22;39197;53.200;5.792;2023-04-12T12:11:19;14.60;99.90
53310;DHT22;39197;53.200;5.792;2023-04-12T12:13:46;15.10;99.90
53310;DHT22;39197;53.200;5.792;2023-04-12T12:16:12;14.90;99.90
53310;DHT22;39197;53.200;5.792;2023-04-12T12:18:42;15.10;99.90
53310;DHT22;39197;53.200;5.792;2023-04-12T12:21:09;14.90;99.90
53310;DHT22;39197;53.200;5.792;2023-04-12T12:23:35;15.10;99.90
53310;DHT22;39197;53.200;5.792;2023-04-12T12:26:02;15.80;99.90
53310;DHT22;39197;53.200;5.792;2023-04-12T12:28:29;15.40;99.90
53310;DHT22;39197;53.200;5.792;2023-04-12T12:30:56;15.30;99.90
53310;DHT22;39197;53.200;5.792;2023-04-12T12:33:22;15.10;99.90
53310;DHT22;39197;53.200;5.792;2023-04-12T12:35:55;15.40;99.90
53310;DHT22;39197;53.200;5.792;2023-04-12T12:38:21;14.90;99.90
53310;DHT22;39197;53.200;5.792;2023-04-12T12:40:46;15.40;99.90
53310;DHT22;39197;53.200;5.792;2023-04-12T12:43:20;15.90;99.90
53310;DHT22;39197;53.200;5.792;2023-04-12T12:45:46;15.80;99.90
53310;DHT22;39197;53.200;5.792;2023-04-12T12:48:12;15.40;99.90
53310;DHT22;39197;53.200;5.792;2023-04-12T12:50:38;15.60;99.90
53310;DHT22;39197;53.200;5.792;2023-04-12T12:53:04;15.40;99.90
53310;DHT22;39197;53.200;5.792;2023-04-12T12:55:33;15.40;99.90
53310;DHT22;39197;53.200;5.792;2023-04-12T12:57:59;15.60;99.90
53310;DHT22;39197;53.200;5.792;2023-04-12T13:00:26;15.40;99.90
53310;DHT22;39197;53.200;5.792;2023-04-12T13:02:52;15.40;99.90
53310;DHT22;39197;53.200;5.792;2023-04-12T13:05:19;15.10;99.90
53310;DHT22;39197;53.200;5.792;2023-04-12T13:07:46;15.00;99.90
53310;DHT22;39197;53.200;5.792;2023-04-12T13:10:12;15.30;99.90
53310;DHT22;39197;53.200;5.792;2023-04-12T13:12:38;15.00;99.90
53310;DHT22;39197;53.200;5.792;2023-04-12T13:15:05;15.50;99.90
53310;DHT22;39197;53.200;5.792;2023-04-12T13:17:31;15.90;99.90
53310;DHT22;39197;53.200;5.792;2023-04-12T13:19:57;16.50;99.90
53310;DHT22;39197;53.200;5.792;2023-04-12T13:22:23;16.50;99.90
53310;DHT22;39197;53.200;5.792;2023-04-12T13:24:49;16.60;99.90
53310;DHT22;39197;53.200;5.792;2023-04-12T13:27:15;16.50;99.90
53310;DHT22;39197;53.200;5.792;2023-04-12T13:29:41;17.00;99.90
53310;DHT22;39197;53.200;5.792;2023-04-12T13:32:07;16.90;99.90
53310;DHT22;39197;53.200;5.792;2023-04-12T13:34:33;16.10;99.90
53310;DHT22;39197;53.200;5.792;2023-04-12T13:36:59;15.80;99.90
53310;DHT22;39197;53.200;5.792;2023-04-12T13:39:25;15.30;99.90
53310;DHT22;39197;53.200;5.792;2023-04-12T13:41:51;14.80;99.90
53310;DHT22;39197;53.200;5.792;2023-04-12T13:44:17;15.00;99.90
53310;DHT22;39197;53.200;5.792;2023-04-12T13:46:42;14.90;99.90
53310;DHT22;39197;53.200;5.792;2023-04-12T13:49:08;15.20;99.90
53310;DHT22;39197;53.200;5.792;2023-04-12T13:51:34;15.70;99.90
53310;DHT22;39197;53.200;5.792;2023-04-12T13:54:00;15.50;99.90
53310;DHT22;39197;53.200;5.792;2023-04-12T13:56:26;15.90;99.90
53310;DHT22;39197;53.200;5.792;2023-04-12T13:58:51;15.70;99.90
53310;DHT22;39197;53.200;5.792;2023-04-12T14:01:17;15.20;99.90
53310;DHT22;39197;53.200;5.792;2023-04-12T14:03:43;15.00;99.90
53310;DHT22;39197;53.200;5.792;2023-04-12T14:06:08;14.90;99.90
53310;DHT22;39197;53.200;5.792;2023-04-12T14:08:34;14.40;99.90
53310;DHT22;39197;53.200;5.792;2023-04-12T14:11:01;13.90;99.90
53310;DHT22;39197;53.200;5.792;2023-04-12T14:13:27;13.90;99.90
53310;DHT22;39197;53.200;5.792;2023-04-12T14:15:53;13.50;99.90
53310;DHT22;39197;53.200;5.792;2023-04-12T14:18:19;13.50;99.90
53310;DHT22;39197;53.200;5.792;2023-04-12T14:20:49;13.40;99.90
53310;DHT22;39197;53.200;5.792;2023-04-12T14:23:17;12.60;99.90
53310;DHT22;39197;53.200;5.792;2023-04-12T14:25:43;12.50;99.90
53310;DHT22;39197;53.200;5.792;2023-04-12T14:28:09;12.50;99.90
53310;DHT22;39197;53.200;5.792;2023-04-12T14:30:35;12.40;99.90
53310;DHT22;39197;53.200;5.792;2023-04-12T14:33:01;12.10;99.90
53310;DHT22;39197;53.200;5.792;2023-04-12T14:35:26;12.30;99.90
53310;DHT22;39197;53.200;5.792;2023-04-12T14:37:52;12.20;99.90
53310;DHT22;39197;53.200;5.792;2023-04-12T14:40:17;12.00;99.90
53310;DHT22;39197;53.200;5.792;2023-04-12T14:42:43;12.10;99.90
53310;DHT22;39197;53.200;5.792;2023-04-12T14:45:09;12.30;99.90
53310;DHT22;39197;53.200;5.792;2023-04-12T14:47:35;12.30;99.90
53310;DHT22;39197;53.200;5.792;2023-04-12T14:50:02;12.40;99.90
53310;DHT22;39197;53.200;5.792;2023-04-12T14:52:28;12.30;99.90
53310;DHT22;39197;53.200;5.792;2023-04-12T14:54:53;12.20;99.90
53310;DHT22;39197;53.200;5.792;2023-04-12T14:57:19;12.60;99.90
53310;DHT22;39197;53.200;5.792;2023-04-12T14:59:45;12.90;99.90
53310;DHT22;39197;53.200;5.792;2023-04-12T15:02:10;13.30;99.90
53310;DHT22;39197;53.200;5.792;2023-04-12T15:04:36;13.60;99.90
53310;DHT22;39197;53.200;5.792;2023-04-12T15:07:02;13.90;99.90
53310;DHT22;39197;53.200;5.792;2023-04-12T15:09:27;14.30;99.90
53310;DHT22;39197;53.200;5.792;2023-04-12T15:11:53;14.30;99.90
53310;DHT22;39197;53.200;5.792;2023-04-12T15:14:37;14.60;99.90
53310;DHT22;39197;53.200;5.792;2023-04-12T15:17:02;14.80;99.90
53310;DHT22;39197;53.200;5.792;2023-04-12T15:19:29;14.80;99.90
53310;DHT22;39197;53.200;5.792;2023-04-12T15:21:55;14.90;99.90
53310;DHT22;39197;53.200;5.792;2023-04-12T15:24:21;15.20;99.10
53310;DHT22;39197;53.200;5.792;2023-04-12T15:26:48;15.00;99.30
53310;DHT22;39197;53.200;5.792;2023-04-12T15:29:15;14.80;99.90
53310;DHT22;39197;53.200;5.792;2023-04-12T15:31:41;14.50;99.90
53310;DHT22;39197;53.200;5.792;2023-04-12T15:34:07;14.00;99.40
53310;DHT22;39197;53.200;5.792;2023-04-12T15:36:34;13.70;99.70
53310;DHT22;39197;53.200;5.792;2023-04-12T15:39:01;13.50;99.90
53310;DHT22;39197;53.200;5.792;2023-04-12T15:41:31;13.80;98.60
53310;DHT22;39197;53.200;5.792;2023-04-12T15:43:57;13.80;98.20
53310;DHT22;39197;53.200;5.792;2023-04-12T15:46:22;14.00;99.00
53310;DHT22;39197;53.200;5.792;2023-04-12T15:48:50;14.10;99.90
53310;DHT22;39197;53.200;5.792;2023-04-12T15:51:16;14.20;99.90
53310;DHT22;39197;53.200;5.792;2023-04-12T15:53:41;13.90;99.90
53310;DHT22;39197;53.200;5.792;2023-04-12T15:56:09;14.20;99.90
53310;DHT22;39197;53.200;5.792;2023-04-12T15:58:36;14.30;99.90
53310;DHT22;39197;53.200;5.792;2023-04-12T16:01:02;14.00;99.90
53310;DHT22;39197;53.200;5.792;2023-04-12T16:03:29;13.90;99.90
53310;DHT22;39197;53.200;5.792;2023-04-12T16:05:56;13.80;99.90
53310;DHT22;39197;53.200;5.792;2023-04-12T16:08:22;13.50;99.90
53310;DHT22;39197;53.200;5.792;2023-04-12T16:10:48;13.30;99.90
53310;DHT22;39197;53.200;5.792;2023-04-12T16:13:14;13.30;99.90